sensor_id;sensor_type;location;lat;lon;timestamp;P1;durP1;ratioP1;P2;durP2;ratioP2
6131;SDS011;3097;42.692;23.278;2022-08-21T00:01:46;4.70;;;4.30;;
6131;SDS011;3097;42.692;23.278;2022-08-21T00:04:11;4.43;;;4.03;;
6131;SDS011;3097;42.692;23.278;2022-08-21T00:06:37;4.40;;;4.07;;
6131;SDS011;3097;42.692;23.278;2022-08-21T00:09:04;4.27;;;3.97;;
6131;SDS011;3097;42.692;23.278;2022-08-21T00:11:33;4.77;;;4.30;;
6131;SDS011;3097;42.692;23.278;2022-08-21T00:14:00;5.13;;;4.73;;
6131;SDS011;3097;42.692;23.278;2022-08-21T00:16:26;4.43;;;4.07;;
6131;SDS011;3097;42.692;23.278;2022-08-21T00:18:52;6.70;;;4.03;;
6131;SDS011;3097;42.692;23.278;2022-08-21T00:21:17;4.67;;;4.30;;
6131;SDS011;3097;42.692;23.278;2022-08-21T00:23:43;5.00;;;4.60;;
6131;SDS011;3097;42.692;23.278;2022-08-21T00:26:08;4.50;;;4.10;;
6131;SDS011;3097;42.692;23.278;2022-08-21T00:28:34;5.27;;;4.20;;
6131;SDS011;3097;42.692;23.278;2022-08-21T00:31:00;4.30;;;3.93;;
6131;SDS011;3097;42.692;23.278;2022-08-21T00:33:29;4.73;;;4.33;;
6131;SDS011;3097;42.692;23.278;2022-08-21T00:35:55;4.73;;;4.23;;
6131;SDS011;3097;42.692;23.278;2022-08-21T00:38:21;4.20;;;3.90;;
6131;SDS011;3097;42.692;23.278;2022-08-21T00:40:51;4.40;;;4.00;;
6131;SDS011;3097;42.692;23.278;2022-08-21T00:43:21;4.47;;;4.07;;
6131;SDS011;3097;42.692;23.278;2022-08-21T00:45:48;5.47;;;4.83;;
6131;SDS011;3097;42.692;23.278;2022-08-21T00:48:14;5.67;;;5.07;;
6131;SDS011;3097;42.692;23.278;2022-08-21T00:50:44;4.60;;;4.20;;
6131;SDS011;3097;42.692;23.278;2022-08-21T00:53:15;5.63;;;4.67;;
6131;SDS011;3097;42.692;23.278;2022-08-21T00:55:42;7.93;;;4.93;;
6131;SDS011;3097;42.692;23.278;2022-08-21T00:58:09;7.03;;;5.23;;
6131;SDS011;3097;42.692;23.278;2022-08-21T01:00:39;5.77;;;5.27;;
6131;SDS011;3097;42.692;23.278;2022-08-21T01:03:08;5.70;;;5.20;;
6131;SDS011;3097;42.692;23.278;2022-08-21T01:05:36;5.63;;;5.03;;
6131;SDS011;3097;42.692;23.278;2022-08-21T01:08:02;6.13;;;5.10;;
6131;SDS011;3097;42.692;23.278;2022-08-21T01:10:28;6.07;;;4.90;;
6131;SDS011;3097;42.692;23.278;2022-08-21T01:12:55;4.60;;;4.23;;
6131;SDS011;3097;42.692;23.278;2022-08-21T01:15:23;5.30;;;4.80;;
6131;SDS011;3097;42.692;23.278;2022-08-21T01:17:52;5.13;;;4.03;;
6131;SDS011;3097;42.692;23.278;2022-08-21T01:20:18;6.23;;;5.30;;
6131;SDS011;3097;42.692;23.278;2022-08-21T01:22:44;8.77;;;5.53;;
6131;SDS011;3097;42.692;23.278;2022-08-21T01:25:12;5.83;;;5.23;;
6131;SDS011;3097;42.692;23.278;2022-08-21T01:27:40;6.30;;;5.70;;
6131;SDS011;3097;42.692;23.278;2022-08-21T01:30:13;5.93;;;5.33;;
6131;SDS011;3097;42.692;23.278;2022-08-21T01:32:42;5.97;;;5.47;;
6131;SDS011;3097;42.692;23.278;2022-08-21T01:35:09;5.97;;;5.47;;
6131;SDS011;3097;42.692;23.278;2022-08-21T01:37:36;5.23;;;4.47;;
6131;SDS011;3097;42.692;23.278;2022-08-21T01:40:02;5.03;;;4.63;;
6131;SDS011;3097;42.692;23.278;2022-08-21T01:42:29;5.87;;;5.37;;
6131;SDS011;3097;42.692;23.278;2022-08-21T01:44:54;5.77;;;5.27;;
6131;SDS011;3097;42.692;23.278;2022-08-21T01:47:19;5.60;;;5.10;;
6131;SDS011;3097;42.692;23.278;2022-08-21T01:49:45;6.07;;;5.47;;
6131;SDS011;3097;42.692;23.278;2022-08-21T01:52:11;5.80;;;5.30;;
6131;SDS011;3097;42.692;23.278;2022-08-21T01:54:37;5.50;;;5.00;;
6131;SDS011;3097;42.692;23.278;2022-08-21T01:57:03;5.90;;;5.40;;
6131;SDS011;3097;42.692;23.278;2022-08-21T01:59:29;5.93;;;5.33;;
6131;SDS011;3097;42.692;23.278;2022-08-21T02:01:54;6.83;;;5.07;;
6131;SDS011;3097;42.692;23.278;2022-08-21T02:04:20;6.13;;;5.53;;
6131;SDS011;3097;42.692;23.278;2022-08-21T02:06:46;6.77;;;5.50;;
6131;SDS011;3097;42.692;23.278;2022-08-21T02:09:12;5.67;;;5.17;;
6131;SDS011;3097;42.692;23.278;2022-08-21T02:11:39;7.03;;;5.50;;
6131;SDS011;3097;42.692;23.278;2022-08-21T02:14:06;6.97;;;5.80;;
6131;SDS011;3097;42.692;23.278;2022-08-21T02:16:37;7.30;;;5.80;;
6131;SDS011;3097;42.692;23.278;2022-08-21T02:19:03;6.60;;;5.90;;
6131;SDS011;3097;42.692;23.278;2022-08-21T02:21:30;7.03;;;5.83;;
6131;SDS011;3097;42.692;23.278;2022-08-21T02:23:56;5.80;;;5.30;;
6131;SDS011;3097;42.692;23.278;2022-08-21T02:26:21;7.50;;;5.60;;
6131;SDS011;3097;42.692;23.278;2022-08-21T02:28:47;10.13;;;6.20;;
6131;SDS011;3097;42.692;23.278;2022-08-21T02:31:13;7.87;;;5.70;;
6131;SDS011;3097;42.692;23.278;2022-08-21T02:33:39;7.90;;;5.70;;
6131;SDS011;3097;42.692;23.278;2022-08-21T02:36:05;6.13;;;5.43;;
6131;SDS011;3097;42.692;23.278;2022-08-21T02:38:32;6.60;;;5.93;;
6131;SDS011;3097;42.692;23.278;2022-08-21T02:40:59;5.97;;;5.07;;
6131;SDS011;3097;42.692;23.278;2022-08-21T02:43:26;5.73;;;5.23;;
6131;SDS011;3097;42.692;23.278;2022-08-21T02:45:52;5.93;;;5.40;;
6131;SDS011;3097;42.692;23.278;2022-08-21T02:48:21;7.83;;;5.53;;
6131;SDS011;3097;42.692;23.278;2022-08-21T02:51:03;5.77;;;5.27;;
6131;SDS011;3097;42.692;23.278;2022-08-21T02:53:34;5.67;;;5.17;;
6131;SDS011;3097;42.692;23.278;2022-08-21T02:56:01;5.50;;;5.00;;
6131;SDS011;3097;42.692;23.278;2022-08-21T02:58:36;7.70;;;5.73;;
6131;SDS011;3097;42.692;23.278;2022-08-21T03:01:05;6.03;;;4.93;;
6131;SDS011;3097;42.692;23.278;2022-08-21T03:03:34;5.87;;;5.30;;
6131;SDS011;3097;42.692;23.278;2022-08-21T03:06:01;6.33;;;5.73;;
6131;SDS011;3097;42.692;23.278;2022-08-21T03:08:26;6.10;;;5.30;;
6131;SDS011;3097;42.692;23.278;2022-08-21T03:10:52;5.30;;;4.90;;
6131;SDS011;3097;42.692;23.278;2022-08-21T03:13:19;5.60;;;5.10;;
6131;SDS011;3097;42.692;23.278;2022-08-21T03:15:45;6.20;;;5.60;;
6131;SDS011;3097;42.692;23.278;2022-08-21T03:18:11;5.30;;;4.80;;
6131;SDS011;3097;42.692;23.278;2022-08-21T03:20:38;5.33;;;4.83;;
6131;SDS011;3097;42.692;23.278;2022-08-21T03:23:06;5.90;;;5.40;;
6131;SDS011;3097;42.692;23.278;2022-08-21T03:25:32;5.73;;;5.03;;
6131;SDS011;3097;42.692;23.278;2022-08-21T03:27:59;6.17;;;5.67;;
6131;SDS011;3097;42.692;23.278;2022-08-21T03:30:26;5.90;;;5.30;;
6131;SDS011;3097;42.692;23.278;2022-08-21T03:32:51;6.97;;;6.37;;
6131;SDS011;3097;42.692;23.278;2022-08-21T03:35:18;6.30;;;5.70;;
6131;SDS011;3097;42.692;23.278;2022-08-21T03:37:44;6.00;;;5.50;;
6131;SDS011;3097;42.692;23.278;2022-08-21T03:40:11;6.47;;;5.77;;
6131;SDS011;3097;42.692;23.278;2022-08-21T03:42:37;7.53;;;6.13;;
6131;SDS011;3097;42.692;23.278;2022-08-21T03:45:04;6.90;;;6.23;;
6131;SDS011;3097;42.692;23.278;2022-08-21T03:47:30;11.97;;;8.40;;
6131;SDS011;3097;42.692;23.278;2022-08-21T03:49:56;12.27;;;8.20;;
6131;SDS011;3097;42.692;23.278;2022-08-21T03:52:21;12.53;;;8.63;;
6131;SDS011;3097;42.692;23.278;2022-08-21T03:54:47;13.57;;;9.07;;
6131;SDS011;3097;42.692;23.278;2022-08-21T03:57:12;15.50;;;8.63;;
6131;SDS011;3097;42.692;23.278;2022-08-21T03:59:38;15.50;;;9.40;;
6131;SDS011;3097;42.692;23.278;2022-08-21T04:02:08;13.90;;;8.77;;
6131;SDS011;3097;42.692;23.278;2022-08-21T04:04:34;13.93;;;8.93;;
6131;SDS011;3097;42.692;23.278;2022-08-21T04:07:00;15.60;;;10.03;;
6131;SDS011;3097;42.692;23.278;2022-08-21T04:09:26;12.83;;;9.70;;
6131;SDS011;3097;42.692;23.278;2022-08-21T04:11:51;13.93;;;9.20;;
6131;SDS011;3097;42.692;23.278;2022-08-21T04:14:19;14.63;;;10.33;;
6131;SDS011;3097;42.692;23.278;2022-08-21T04:16:45;12.57;;;9.40;;
6131;SDS011;3097;42.692;23.278;2022-08-21T04:19:12;12.00;;;8.50;;
6131;SDS011;3097;42.692;23.278;2022-08-21T04:21:41;11.77;;;9.10;;
6131;SDS011;3097;42.692;23.278;2022-08-21T04:24:08;12.43;;;9.00;;
6131;SDS011;3097;42.692;23.278;2022-08-21T04:26:35;13.90;;;9.07;;
6131;SDS011;3097;42.692;23.278;2022-08-21T04:29:02;12.20;;;8.67;;
6131;SDS011;3097;42.692;23.278;2022-08-21T04:31:29;12.70;;;8.60;;
6131;SDS011;3097;42.692;23.278;2022-08-21T04:33:55;10.93;;;7.97;;
6131;SDS011;3097;42.692;23.278;2022-08-21T04:36:21;10.83;;;8.03;;
6131;SDS011;3097;42.692;23.278;2022-08-21T04:38:48;11.77;;;8.97;;
6131;SDS011;3097;42.692;23.278;2022-08-21T04:41:13;10.20;;;8.03;;
6131;SDS011;3097;42.692;23.278;2022-08-21T04:43:39;11.53;;;8.07;;
6131;SDS011;3097;42.692;23.278;2022-08-21T04:46:05;11.37;;;8.90;;
6131;SDS011;3097;42.692;23.278;2022-08-21T04:48:30;11.47;;;8.27;;
6131;SDS011;3097;42.692;23.278;2022-08-21T04:53:24;10.47;;;7.90;;
6131;SDS011;3097;42.692;23.278;2022-08-21T04:55:55;12.00;;;8.67;;
6131;SDS011;3097;42.692;23.278;2022-08-21T04:58:22;8.13;;;7.20;;
6131;SDS011;3097;42.692;23.278;2022-08-21T05:00:52;10.13;;;6.97;;
6131;SDS011;3097;42.692;23.278;2022-08-21T05:03:20;7.03;;;6.33;;
6131;SDS011;3097;42.692;23.278;2022-08-21T05:05:46;7.20;;;6.00;;
6131;SDS011;3097;42.692;23.278;2022-08-21T05:08:13;6.83;;;5.60;;
6131;SDS011;3097;42.692;23.278;2022-08-21T05:10:41;7.10;;;5.73;;
6131;SDS011;3097;42.692;23.278;2022-08-21T05:13:09;5.80;;;5.27;;
6131;SDS011;3097;42.692;23.278;2022-08-21T05:15:37;6.23;;;5.63;;
6131;SDS011;3097;42.692;23.278;2022-08-21T05:18:04;9.03;;;5.60;;
6131;SDS011;3097;42.692;23.278;2022-08-21T05:20:31;5.60;;;4.90;;
6131;SDS011;3097;42.692;23.278;2022-08-21T05:22:59;6.67;;;5.30;;
6131;SDS011;3097;42.692;23.278;2022-08-21T05:25:25;5.73;;;5.23;;
6131;SDS011;3097;42.692;23.278;2022-08-21T05:27:51;8.00;;;6.13;;
6131;SDS011;3097;42.692;23.278;2022-08-21T05:30:18;7.87;;;6.63;;
6131;SDS011;3097;42.692;23.278;2022-08-21T05:32:45;6.80;;;6.20;;
6131;SDS011;3097;42.692;23.278;2022-08-21T05:35:11;7.77;;;5.17;;
6131;SDS011;3097;42.692;23.278;2022-08-21T05:37:36;7.00;;;6.30;;
6131;SDS011;3097;42.692;23.278;2022-08-21T05:40:03;6.53;;;5.93;;
6131;SDS011;3097;42.692;23.278;2022-08-21T05:42:30;6.27;;;5.67;;
6131;SDS011;3097;42.692;23.278;2022-08-21T05:44:55;6.93;;;5.53;;
6131;SDS011;3097;42.692;23.278;2022-08-21T05:47:21;5.80;;;5.30;;
6131;SDS011;3097;42.692;23.278;2022-08-21T05:56:19;6.37;;;5.77;;
6131;SDS011;3097;42.692;23.278;2022-08-21T05:58:44;6.03;;;5.50;;
6131;SDS011;3097;42.692;23.278;2022-08-21T06:01:10;7.87;;;5.37;;
6131;SDS011;3097;42.692;23.278;2022-08-21T06:03:36;6.60;;;5.90;;
6131;SDS011;3097;42.692;23.278;2022-08-21T06:06:04;7.03;;;6.40;;
6131;SDS011;3097;42.692;23.278;2022-08-21T06:08:30;6.97;;;6.20;;
6131;SDS011;3097;42.692;23.278;2022-08-21T06:10:58;8.97;;;6.97;;
6131;SDS011;3097;42.692;23.278;2022-08-21T06:13:25;10.67;;;7.27;;
6131;SDS011;3097;42.692;23.278;2022-08-21T06:16:02;7.87;;;7.07;;
6131;SDS011;3097;42.692;23.278;2022-08-21T06:18:31;7.00;;;6.30;;
6131;SDS011;3097;42.692;23.278;2022-08-21T06:20:57;7.27;;;6.67;;
6131;SDS011;3097;42.692;23.278;2022-08-21T06:23:22;7.27;;;6.60;;
6131;SDS011;3097;42.692;23.278;2022-08-21T06:25:48;7.93;;;6.77;;
6131;SDS011;3097;42.692;23.278;2022-08-21T06:28:13;7.73;;;6.80;;
6131;SDS011;3097;42.692;23.278;2022-08-21T06:30:39;8.10;;;6.83;;
6131;SDS011;3097;42.692;23.278;2022-08-21T06:33:04;8.80;;;7.90;;
6131;SDS011;3097;42.692;23.278;2022-08-21T06:35:31;11.13;;;7.87;;
6131;SDS011;3097;42.692;23.278;2022-08-21T06:37:57;10.77;;;8.10;;
6131;SDS011;3097;42.692;23.278;2022-08-21T06:40:23;8.77;;;7.90;;
6131;SDS011;3097;42.692;23.278;2022-08-21T06:42:48;10.43;;;8.03;;
6131;SDS011;3097;42.692;23.278;2022-08-21T06:45:14;8.93;;;8.03;;
6131;SDS011;3097;42.692;23.278;2022-08-21T06:47:40;9.57;;;8.57;;
6131;SDS011;3097;42.692;23.278;2022-08-21T06:50:05;11.27;;;8.10;;
6131;SDS011;3097;42.692;23.278;2022-08-21T06:52:35;10.70;;;8.47;;
6131;SDS011;3097;42.692;23.278;2022-08-21T06:55:02;11.27;;;8.40;;
6131;SDS011;3097;42.692;23.278;2022-08-21T06:57:30;11.30;;;8.97;;
6131;SDS011;3097;42.692;23.278;2022-08-21T06:59:55;14.27;;;11.20;;
6131;SDS011;3097;42.692;23.278;2022-08-21T07:02:21;13.53;;;10.87;;
6131;SDS011;3097;42.692;23.278;2022-08-21T07:04:46;9.57;;;8.60;;
6131;SDS011;3097;42.692;23.278;2022-08-21T07:07:12;8.80;;;6.80;;
6131;SDS011;3097;42.692;23.278;2022-08-21T07:09:37;10.47;;;7.83;;
6131;SDS011;3097;42.692;23.278;2022-08-21T07:12:03;10.60;;;7.90;;
6131;SDS011;3097;42.692;23.278;2022-08-21T07:14:29;8.50;;;7.70;;
6131;SDS011;3097;42.692;23.278;2022-08-21T07:16:55;8.90;;;7.63;;
6131;SDS011;3097;42.692;23.278;2022-08-21T07:19:20;8.73;;;7.80;;
6131;SDS011;3097;42.692;23.278;2022-08-21T07:21:46;8.10;;;7.30;;
6131;SDS011;3097;42.692;23.278;2022-08-21T07:24:12;8.63;;;7.80;;
6131;SDS011;3097;42.692;23.278;2022-08-21T07:26:37;8.90;;;8.00;;
6131;SDS011;3097;42.692;23.278;2022-08-21T07:29:03;9.30;;;7.80;;
6131;SDS011;3097;42.692;23.278;2022-08-21T07:31:30;9.50;;;7.70;;
6131;SDS011;3097;42.692;23.278;2022-08-21T07:33:56;9.33;;;6.70;;
6131;SDS011;3097;42.692;23.278;2022-08-21T07:36:22;8.63;;;7.80;;
6131;SDS011;3097;42.692;23.278;2022-08-21T07:38:47;8.97;;;7.30;;
6131;SDS011;3097;42.692;23.278;2022-08-21T07:41:17;7.20;;;6.50;;
6131;SDS011;3097;42.692;23.278;2022-08-21T07:43:45;6.97;;;6.03;;
6131;SDS011;3097;42.692;23.278;2022-08-21T07:46:11;7.30;;;6.60;;
6131;SDS011;3097;42.692;23.278;2022-08-21T07:48:37;7.63;;;6.93;;
6131;SDS011;3097;42.692;23.278;2022-08-21T07:51:04;7.10;;;6.50;;
6131;SDS011;3097;42.692;23.278;2022-08-21T07:53:33;6.87;;;6.07;;
6131;SDS011;3097;42.692;23.278;2022-08-21T07:56:01;6.50;;;5.90;;
6131;SDS011;3097;42.692;23.278;2022-08-21T07:58:26;6.93;;;6.33;;
6131;SDS011;3097;42.692;23.278;2022-08-21T08:00:52;8.67;;;6.67;;
6131;SDS011;3097;42.692;23.278;2022-08-21T08:03:18;7.30;;;6.60;;
6131;SDS011;3097;42.692;23.278;2022-08-21T08:05:43;9.47;;;6.33;;
6131;SDS011;3097;42.692;23.278;2022-08-21T08:08:08;7.00;;;6.50;;
6131;SDS011;3097;42.692;23.278;2022-08-21T08:10:34;6.97;;;6.37;;
6131;SDS011;3097;42.692;23.278;2022-08-21T08:13:01;8.07;;;7.37;;
6131;SDS011;3097;42.692;23.278;2022-08-21T08:15:26;9.00;;;8.20;;
6131;SDS011;3097;42.692;23.278;2022-08-21T08:17:53;9.10;;;7.40;;
6131;SDS011;3097;42.692;23.278;2022-08-21T08:20:20;7.73;;;6.43;;
6131;SDS011;3097;42.692;23.278;2022-08-21T08:22:48;7.57;;;6.73;;
6131;SDS011;3097;42.692;23.278;2022-08-21T08:25:14;6.80;;;6.10;;
6131;SDS011;3097;42.692;23.278;2022-08-21T08:27:40;9.47;;;6.87;;
6131;SDS011;3097;42.692;23.278;2022-08-21T08:30:07;8.27;;;7.40;;
6131;SDS011;3097;42.692;23.278;2022-08-21T08:32:34;8.17;;;7.37;;
6131;SDS011;3097;42.692;23.278;2022-08-21T08:35:00;7.87;;;7.07;;
6131;SDS011;3097;42.692;23.278;2022-08-21T08:37:26;8.43;;;7.60;;
6131;SDS011;3097;42.692;23.278;2022-08-21T08:39:52;8.03;;;7.30;;
6131;SDS011;3097;42.692;23.278;2022-08-21T08:42:20;7.73;;;7.03;;
6131;SDS011;3097;42.692;23.278;2022-08-21T08:44:57;7.20;;;6.60;;
6131;SDS011;3097;42.692;23.278;2022-08-21T08:47:26;7.40;;;6.53;;
6131;SDS011;3097;42.692;23.278;2022-08-21T08:49:58;6.57;;;5.97;;
6131;SDS011;3097;42.692;23.278;2022-08-21T08:55:14;7.03;;;6.30;;
6131;SDS011;3097;42.692;23.278;2022-08-21T08:57:44;6.90;;;6.20;;
6131;SDS011;3097;42.692;23.278;2022-08-21T09:00:13;7.10;;;5.50;;
6131;SDS011;3097;42.692;23.278;2022-08-21T09:02:41;6.23;;;5.73;;
6131;SDS011;3097;42.692;23.278;2022-08-21T09:05:25;6.43;;;5.83;;
6131;SDS011;3097;42.692;23.278;2022-08-21T09:08:05;6.23;;;5.73;;
6131;SDS011;3097;42.692;23.278;2022-08-21T09:19:04;8.27;;;5.63;;
6131;SDS011;3097;42.692;23.278;2022-08-21T09:24:31;6.07;;;5.57;;
6131;SDS011;3097;42.692;23.278;2022-08-21T09:27:16;6.00;;;5.50;;
6131;SDS011;3097;42.692;23.278;2022-08-21T09:29:45;6.47;;;5.80;;
6131;SDS011;3097;42.692;23.278;2022-08-21T09:32:17;6.70;;;6.13;;
6131;SDS011;3097;42.692;23.278;2022-08-21T09:35:27;7.50;;;6.17;;
6131;SDS011;3097;42.692;23.278;2022-08-21T09:40:45;8.20;;;6.70;;
6131;SDS011;3097;42.692;23.278;2022-08-21T09:45:46;6.43;;;5.83;;
6131;SDS011;3097;42.692;23.278;2022-08-21T09:48:14;7.30;;;5.83;;
6131;SDS011;3097;42.692;23.278;2022-08-21T09:50:44;6.60;;;5.77;;
6131;SDS011;3097;42.692;23.278;2022-08-21T09:53:25;6.93;;;6.33;;
6131;SDS011;3097;42.692;23.278;2022-08-21T09:58:40;5.70;;;5.20;;
6131;SDS011;3097;42.692;23.278;2022-08-21T10:01:13;5.63;;;5.13;;
6131;SDS011;3097;42.692;23.278;2022-08-21T10:03:40;5.20;;;4.80;;
6131;SDS011;3097;42.692;23.278;2022-08-21T10:06:07;5.83;;;5.30;;
6131;SDS011;3097;42.692;23.278;2022-08-21T10:08:38;7.73;;;6.93;;
6131;SDS011;3097;42.692;23.278;2022-08-21T10:11:06;6.60;;;5.73;;
6131;SDS011;3097;42.692;23.278;2022-08-21T10:13:39;5.80;;;5.30;;
6131;SDS011;3097;42.692;23.278;2022-08-21T10:16:26;5.27;;;4.70;;
6131;SDS011;3097;42.692;23.278;2022-08-21T10:21:59;5.50;;;5.10;;
6131;SDS011;3097;42.692;23.278;2022-08-21T10:24:40;4.97;;;4.43;;
6131;SDS011;3097;42.692;23.278;2022-08-21T10:30:13;5.10;;;4.40;;
6131;SDS011;3097;42.692;23.278;2022-08-21T10:33:06;5.20;;;4.70;;
6131;SDS011;3097;42.692;23.278;2022-08-21T10:35:48;4.37;;;4.07;;
6131;SDS011;3097;42.692;23.278;2022-08-21T10:46:54;5.43;;;5.03;;
6131;SDS011;3097;42.692;23.278;2022-08-21T10:49:48;5.57;;;5.00;;
6131;SDS011;3097;42.692;23.278;2022-08-21T10:55:16;5.43;;;4.93;;
6131;SDS011;3097;42.692;23.278;2022-08-21T10:57:54;5.47;;;5.07;;
6131;SDS011;3097;42.692;23.278;2022-08-21T11:00:24;6.30;;;5.80;;
6131;SDS011;3097;42.692;23.278;2022-08-21T11:09:16;5.93;;;5.43;;
6131;SDS011;3097;42.692;23.278;2022-08-21T11:11:50;5.63;;;5.23;;
6131;SDS011;3097;42.692;23.278;2022-08-21T11:14:39;5.83;;;5.43;;
6131;SDS011;3097;42.692;23.278;2022-08-21T11:17:13;5.73;;;5.17;;
6131;SDS011;3097;42.692;23.278;2022-08-21T11:22:17;5.70;;;5.20;;
6131;SDS011;3097;42.692;23.278;2022-08-21T11:24:50;5.67;;;5.17;;
6131;SDS011;3097;42.692;23.278;2022-08-21T11:27:32;5.87;;;5.37;;
6131;SDS011;3097;42.692;23.278;2022-08-21T11:30:04;5.27;;;4.77;;
6131;SDS011;3097;42.692;23.278;2022-08-21T11:36:15;5.80;;;5.30;;
6131;SDS011;3097;42.692;23.278;2022-08-21T11:41:19;7.80;;;5.90;;
6131;SDS011;3097;42.692;23.278;2022-08-21T11:44:02;5.70;;;5.30;;
6131;SDS011;3097;42.692;23.278;2022-08-21T11:54:57;5.20;;;4.80;;
6131;SDS011;3097;42.692;23.278;2022-08-21T12:00:13;5.23;;;4.90;;
6131;SDS011;3097;42.692;23.278;2022-08-21T12:02:48;5.90;;;4.77;;
6131;SDS011;3097;42.692;23.278;2022-08-21T12:05:51;4.87;;;4.47;;
6131;SDS011;3097;42.692;23.278;2022-08-21T12:08:33;4.47;;;4.07;;
6131;SDS011;3097;42.692;23.278;2022-08-21T12:11:08;4.63;;;4.23;;
6131;SDS011;3097;42.692;23.278;2022-08-21T12:21:33;4.77;;;4.40;;
6131;SDS011;3097;42.692;23.278;2022-08-21T12:26:56;4.43;;;4.13;;
6131;SDS011;3097;42.692;23.278;2022-08-21T12:29:33;4.53;;;4.23;;
6131;SDS011;3097;42.692;23.278;2022-08-21T12:32:04;4.93;;;4.50;;
6131;SDS011;3097;42.692;23.278;2022-08-21T12:40:10;4.67;;;4.37;;
6131;SDS011;3097;42.692;23.278;2022-08-21T12:42:38;4.93;;;4.57;;
6131;SDS011;3097;42.692;23.278;2022-08-21T12:45:16;4.50;;;4.20;;
6131;SDS011;3097;42.692;23.278;2022-08-21T12:47:47;5.00;;;4.37;;
6131;SDS011;3097;42.692;23.278;2022-08-21T12:50:26;4.43;;;4.13;;
6131;SDS011;3097;42.692;23.278;2022-08-21T12:55:31;5.73;;;5.20;;
6131;SDS011;3097;42.692;23.278;2022-08-21T12:57:58;4.80;;;4.40;;
6131;SDS011;3097;42.692;23.278;2022-08-21T13:00:25;4.77;;;4.33;;
6131;SDS011;3097;42.692;23.278;2022-08-21T13:02:53;5.50;;;5.10;;
6131;SDS011;3097;42.692;23.278;2022-08-21T13:05:25;4.87;;;4.50;;
6131;SDS011;3097;42.692;23.278;2022-08-21T13:07:54;5.80;;;5.30;;
6131;SDS011;3097;42.692;23.278;2022-08-21T13:10:26;5.63;;;5.13;;
6131;SDS011;3097;42.692;23.278;2022-08-21T13:12:57;5.23;;;4.73;;
6131;SDS011;3097;42.692;23.278;2022-08-21T13:15:34;5.23;;;4.83;;
6131;SDS011;3097;42.692;23.278;2022-08-21T13:18:01;6.00;;;5.30;;
6131;SDS011;3097;42.692;23.278;2022-08-21T13:20:30;5.57;;;5.07;;
6131;SDS011;3097;42.692;23.278;2022-08-21T13:23:29;5.33;;;4.93;;
6131;SDS011;3097;42.692;23.278;2022-08-21T13:25:55;7.00;;;4.60;;
6131;SDS011;3097;42.692;23.278;2022-08-21T13:28:21;4.93;;;4.53;;
6131;SDS011;3097;42.692;23.278;2022-08-21T13:30:48;4.70;;;4.37;;
6131;SDS011;3097;42.692;23.278;2022-08-21T13:33:19;5.20;;;4.77;;
6131;SDS011;3097;42.692;23.278;2022-08-21T13:38:35;4.90;;;4.50;;
6131;SDS011;3097;42.692;23.278;2022-08-21T13:43:44;4.83;;;4.50;;
6131;SDS011;3097;42.692;23.278;2022-08-21T13:46:12;6.00;;;5.40;;
6131;SDS011;3097;42.692;23.278;2022-08-21T13:48:39;5.00;;;4.60;;
6131;SDS011;3097;42.692;23.278;2022-08-21T13:51:07;6.33;;;5.83;;
6131;SDS011;3097;42.692;23.278;2022-08-21T13:53:35;6.20;;;5.70;;
6131;SDS011;3097;42.692;23.278;2022-08-21T13:56:21;5.60;;;5.10;;
6131;SDS011;3097;42.692;23.278;2022-08-21T13:58:52;5.43;;;5.00;;
6131;SDS011;3097;42.692;23.278;2022-08-21T14:01:23;7.03;;;6.53;;
6131;SDS011;3097;42.692;23.278;2022-08-21T14:03:52;5.43;;;4.97;;
6131;SDS011;3097;42.692;23.278;2022-08-21T14:06:25;5.10;;;4.63;;
6131;SDS011;3097;42.692;23.278;2022-08-21T14:08:56;6.70;;;5.97;;
6131;SDS011;3097;42.692;23.278;2022-08-21T14:11:25;5.03;;;4.70;;
6131;SDS011;3097;42.692;23.278;2022-08-21T14:16:29;5.97;;;5.37;;
6131;SDS011;3097;42.692;23.278;2022-08-21T14:19:11;4.97;;;4.33;;
6131;SDS011;3097;42.692;23.278;2022-08-21T14:21:44;5.30;;;4.07;;
6131;SDS011;3097;42.692;23.278;2022-08-21T14:24:23;5.83;;;5.23;;
6131;SDS011;3097;42.692;23.278;2022-08-21T14:27:04;5.73;;;4.53;;
6131;SDS011;3097;42.692;23.278;2022-08-21T14:29:34;4.93;;;4.53;;
6131;SDS011;3097;42.692;23.278;2022-08-21T14:32:12;6.07;;;5.53;;
6131;SDS011;3097;42.692;23.278;2022-08-21T14:34:39;5.20;;;4.80;;
6131;SDS011;3097;42.692;23.278;2022-08-21T14:37:05;5.70;;;5.20;;
6131;SDS011;3097;42.692;23.278;2022-08-21T14:39:30;6.00;;;5.50;;
6131;SDS011;3097;42.692;23.278;2022-08-21T14:41:56;5.50;;;5.10;;
6131;SDS011;3097;42.692;23.278;2022-08-21T14:44:23;5.30;;;4.80;;
6131;SDS011;3097;42.692;23.278;2022-08-21T14:46:49;5.37;;;4.97;;
6131;SDS011;3097;42.692;23.278;2022-08-21T14:49:14;5.23;;;4.83;;
6131;SDS011;3097;42.692;23.278;2022-08-21T14:51:40;5.10;;;4.70;;
6131;SDS011;3097;42.692;23.278;2022-08-21T14:54:06;5.13;;;4.73;;
6131;SDS011;3097;42.692;23.278;2022-08-21T14:56:32;5.73;;;5.23;;
6131;SDS011;3097;42.692;23.278;2022-08-21T14:59:02;5.90;;;5.40;;
6131;SDS011;3097;42.692;23.278;2022-08-21T15:01:31;4.93;;;4.50;;
6131;SDS011;3097;42.692;23.278;2022-08-21T15:04:00;5.93;;;4.70;;
6131;SDS011;3097;42.692;23.278;2022-08-21T15:06:25;6.07;;;5.47;;
6131;SDS011;3097;42.692;23.278;2022-08-21T15:08:51;5.40;;;4.63;;
6131;SDS011;3097;42.692;23.278;2022-08-21T15:11:18;5.17;;;4.70;;
6131;SDS011;3097;42.692;23.278;2022-08-21T15:13:49;5.17;;;4.60;;
6131;SDS011;3097;42.692;23.278;2022-08-21T15:16:20;5.60;;;5.10;;
6131;SDS011;3097;42.692;23.278;2022-08-21T15:18:46;6.17;;;5.57;;
6131;SDS011;3097;42.692;23.278;2022-08-21T15:21:11;5.57;;;5.07;;
6131;SDS011;3097;42.692;23.278;2022-08-21T15:23:36;5.57;;;5.07;;
6131;SDS011;3097;42.692;23.278;2022-08-21T15:26:02;5.90;;;5.43;;
6131;SDS011;3097;42.692;23.278;2022-08-21T15:28:29;5.47;;;5.07;;
6131;SDS011;3097;42.692;23.278;2022-08-21T15:30:55;5.23;;;4.83;;
6131;SDS011;3097;42.692;23.278;2022-08-21T15:33:21;5.70;;;5.10;;
6131;SDS011;3097;42.692;23.278;2022-08-21T15:35:46;6.70;;;6.00;;
6131;SDS011;3097;42.692;23.278;2022-08-21T15:38:13;5.80;;;5.30;;
6131;SDS011;3097;42.692;23.278;2022-08-21T15:40:41;7.10;;;6.40;;
6131;SDS011;3097;42.692;23.278;2022-08-21T15:43:21;7.40;;;6.80;;
6131;SDS011;3097;42.692;23.278;2022-08-21T15:45:51;8.47;;;6.77;;
6131;SDS011;3097;42.692;23.278;2022-08-21T15:48:16;5.70;;;5.30;;
6131;SDS011;3097;42.692;23.278;2022-08-21T15:50:42;5.97;;;5.47;;
6131;SDS011;3097;42.692;23.278;2022-08-21T15:53:08;6.03;;;5.50;;
6131;SDS011;3097;42.692;23.278;2022-08-21T15:55:33;6.33;;;5.73;;
6131;SDS011;3097;42.692;23.278;2022-08-21T15:58:00;10.60;;;7.40;;
6131;SDS011;3097;42.692;23.278;2022-08-21T16:00:28;18.77;;;11.73;;
6131;SDS011;3097;42.692;23.278;2022-08-21T16:02:57;5.87;;;5.47;;
6131;SDS011;3097;42.692;23.278;2022-08-21T16:05:24;6.73;;;5.50;;
6131;SDS011;3097;42.692;23.278;2022-08-21T16:07:49;6.37;;;5.50;;
6131;SDS011;3097;42.692;23.278;2022-08-21T16:10:17;6.53;;;5.87;;
6131;SDS011;3097;42.692;23.278;2022-08-21T16:12:56;6.97;;;5.77;;
6131;SDS011;3097;42.692;23.278;2022-08-21T16:15:25;6.97;;;5.63;;
6131;SDS011;3097;42.692;23.278;2022-08-21T16:17:52;7.07;;;6.20;;
6131;SDS011;3097;42.692;23.278;2022-08-21T16:20:24;9.07;;;8.17;;
6131;SDS011;3097;42.692;23.278;2022-08-21T16:22:52;13.23;;;8.17;;
6131;SDS011;3097;42.692;23.278;2022-08-21T16:25:18;8.37;;;7.50;;
6131;SDS011;3097;42.692;23.278;2022-08-21T16:27:45;24.30;;;14.40;;
6131;SDS011;3097;42.692;23.278;2022-08-21T16:30:24;16.83;;;10.17;;
6131;SDS011;3097;42.692;23.278;2022-08-21T16:32:50;7.00;;;5.90;;
6131;SDS011;3097;42.692;23.278;2022-08-21T16:35:18;6.50;;;5.70;;
6131;SDS011;3097;42.692;23.278;2022-08-21T16:37:46;9.07;;;7.30;;
6131;SDS011;3097;42.692;23.278;2022-08-21T16:40:12;7.73;;;6.30;;
6131;SDS011;3097;42.692;23.278;2022-08-21T16:42:39;7.03;;;6.33;;
6131;SDS011;3097;42.692;23.278;2022-08-21T16:45:07;10.43;;;7.70;;
6131;SDS011;3097;42.692;23.278;2022-08-21T16:47:35;7.40;;;6.50;;
6131;SDS011;3097;42.692;23.278;2022-08-21T16:50:00;59.97;;;24.13;;
6131;SDS011;3097;42.692;23.278;2022-08-21T16:52:26;25.83;;;13.80;;